Time;durP1;ratioP1;P1;durP2;ratioP2;P2;SDS_P1;SDS_P2;PMS_P1;PMS_P2;Temp;Humidity;BMP_temperature;BMP_pressure;BME280_temperature;BME280_humidity;BME280_pressure;Samples;Min_cycle;Max_cycle;Signal;HPM_P1;HPM_P2
2021/05/21 14:16:22;;;;;;;;;0.00;0.00;;;;;21.70;32.44;100040.72;5056870;27;45410;-69
2021/05/21 14:18:47;;;;;;;;;1.00;1.00;;;;;21.38;32.60;100016.25;5029348;28;46761;-69
2021/05/21 14:21:13;;;;;;;;;1.67;1.67;;;;;21.17;32.92;100032.22;5043434;28;45462;-68
2021/05/21 14:23:44;;;;;;;;;1.00;1.00;;;;;21.09;32.68;100017.63;5045496;28;49161;-69
2021/05/21 14:26:10;;;;;;;;;1.00;1.00;;;;;21.05;33.02;100008.88;5024030;28;47805;-67
2021/05/21 14:28:35;;;;;;;;;1.00;1.00;;;;;20.95;32.92;100015.09;5043765;28;46186;-68
2021/05/21 14:31:01;;;;;;;;;0.00;0.00;;;;;20.76;33.47;100029.09;5032669;28;45477;-65
2021/05/21 14:33:34;;;;;;;;;1.00;1.00;;;;;20.53;33.74;100006.56;5032704;28;45732;-66
2021/05/21 14:36:00;;;;;;;;;1.00;1.00;;;;;20.38;33.93;100015.75;5027331;28;47560;-66
2021/05/21 14:38:25;;;;;;;;;1.00;1.00;;;;;20.29;33.98;99983.09;5031967;28;46044;-65
2021/05/21 14:40:51;;;;;;;;;0.00;0.00;;;;;20.29;34.44;99995.72;5032329;28;45374;-66
2021/05/21 14:43:16;;;;;;;;;1.67;1.00;;;;;20.31;34.56;99998.28;5013418;28;46102;-68
2021/05/21 14:45:42;;;;;;;;;1.00;0.00;;;;;20.29;34.14;99988.47;5023673;28;49370;-73
2021/05/21 14:48:07;;;;;;;;;1.00;1.00;;;;;20.23;34.22;99990.78;5028567;28;45598;-70
2021/05/21 14:50:34;;;;;;;;;0.00;0.00;;;;;20.11;33.73;99976.38;5029980;28;45858;-71
2021/05/21 14:53:00;;;;;;;;;1.67;1.67;;;;;19.97;33.49;99996.22;5028800;28;47898;-70
2021/05/21 14:55:27;;;;;;;;;1.00;1.00;;;;;19.88;33.55;99990.63;5012446;28;47426;-71
2021/05/21 14:57:53;;;;;;;;;2.67;0.67;;;;;19.74;33.10;99996.16;5031280;28;45441;-71
2021/05/21 15:00:22;;;;;;;;;1.00;1.00;;;;;19.62;33.37;100033.72;5048618;28;45552;-69
2021/05/21 15:02:49;;;;;;;;;1.00;1.00;;;;;19.53;33.35;100014.63;5015027;28;45430;-71
2021/05/21 15:05:16;;;;;;;;;1.33;0.00;;;;;19.40;33.32;100031.63;5047623;28;46580;-69
2021/05/21 15:07:41;;;;;;;;;0.67;0.67;;;;;19.22;35.09;100045.50;5011713;28;45632;-70
2021/05/21 15:10:09;;;;;;;;;1.00;1.00;;;;;19.03;36.93;100025.22;4994319;28;45481;-70
2021/05/21 15:12:35;;;;;;;;;2.00;1.00;;;;;18.82;37.39;100023.97;5011273;28;45532;-69
2021/05/21 15:15:05;;;;;;;;;1.00;1.00;;;;;18.75;38.24;100028.88;5008694;28;47457;-70
2021/05/21 15:17:55;;;;;;;;;1.00;0.00;;;;;18.79;38.45;100016.97;5011739;28;46199;-69
2021/05/21 15:25:49;;;;;;;;;1.00;1.00;;;;;19.51;37.77;99998.59;5022676;28;45974;-71
2021/05/21 15:28:14;;;;;;;;;1.67;1.67;;;;;19.68;36.83;99986.66;4999710;28;45522;-70
2021/05/21 15:30:56;;;;;;;;;1.00;1.00;;;;;19.84;36.41;99991.84;5014707;28;49176;-70
2021/05/21 15:33:23;;;;;;;;;0.00;0.00;;;;;20.02;36.43;99982.41;5016240;28;45406;-70
2021/05/21 15:35:48;;;;;;;;;0.33;0.00;;;;;20.26;36.19;99979.78;4999970;28;46331;-72
2021/05/21 15:38:14;;;;;;;;;0.00;0.00;;;;;20.54;35.77;99973.22;4998741;28;45586;-70
2021/05/21 15:40:40;;;;;;;;;2.00;2.00;;;;;20.72;34.45;99958.38;4996145;28;45502;-71
2021/05/21 15:45:58;;;;;;;;;0.67;0.67;;;;;20.75;34.46;99952.75;5000349;28;45682;-69
2021/05/21 15:48:30;;;;;;;;;1.67;1.67;;;;;20.75;34.27;99954.59;4978839;28;45850;-71
2021/05/21 16:01:23;;;;;;;;;0.00;0.00;;;;;19.94;37.02;99955.16;4995703;28;45546;-71
2021/05/21 16:03:48;;;;;;;;;0.67;0.67;;;;;19.80;36.74;99949.94;4997729;28;45561;-69
2021/05/21 16:06:14;;;;;;;;;0.00;0.00;;;;;19.66;35.96;99959.00;4977096;28;48572;-70
2021/05/21 16:08:39;;;;;;;;;1.00;1.00;;;;;19.49;35.21;99956.63;4992048;28;45471;-69
2021/05/21 16:11:06;;;;;;;;;2.33;0.00;;;;;19.32;34.91;99977.50;4994905;28;45827;-68
2021/05/21 16:13:33;;;;;;;;;0.00;0.00;;;;;19.19;35.56;99983.84;4997089;28;46437;-70
2021/05/21 16:15:58;;;;;;;;;0.67;0.00;;;;;19.05;36.02;99976.69;4996733;28;46508;-70
2021/05/21 16:18:23;;;;;;;;;1.00;1.00;;;;;18.94;36.71;99972.06;4970793;28;60392;-69
2021/05/21 16:20:49;;;;;;;;;1.00;1.00;;;;;18.89;37.45;99974.19;4981883;28;45474;-69
2021/05/21 16:23:14;;;;;;;;;0.00;0.00;;;;;18.85;38.20;99979.91;4979139;28;45992;-69
2021/05/21 16:25:40;;;;;;;;;0.00;0.00;;;;;18.83;39.41;99977.31;4985679;28;47074;-71
2021/05/21 16:28:05;;;;;;;;;1.67;1.67;;;;;18.84;39.02;99970.97;4977214;28;45582;-73
2021/05/21 16:30:31;;;;;;;;;0.33;0.33;;;;;18.81;39.32;99977.41;4978920;28;45749;-73
2021/05/21 16:32:59;;;;;;;;;0.67;0.67;;;;;18.76;39.43;99978.69;4992911;28;47104;-81
2021/05/21 16:35:24;;;;;;;;;0.67;0.67;;;;;18.70;39.35;99984.47;4995588;28;46142;-74
2021/05/21 16:37:53;;;;;;;;;1.00;1.00;;;;;18.59;39.71;99989.69;4975955;28;66275;-73
2021/05/21 16:40:19;;;;;;;;;1.00;1.00;;;;;18.47;39.94;99992.19;4975789;28;45396;-71
2021/05/21 16:42:45;;;;;;;;;0.00;0.00;;;;;18.33;40.04;100004.81;4991606;28;48558;-73
2021/05/21 16:45:10;;;;;;;;;0.00;0.00;;;;;18.18;40.64;100007.53;5009318;28;48054;-75
2021/05/21 16:47:36;;;;;;;;;1.33;1.00;;;;;18.00;41.43;100042.75;4995055;28;45549;-74
2021/05/21 16:50:02;;;;;;;;;1.00;1.00;;;;;17.75;42.21;100030.00;4974544;28;45897;-76
2021/05/21 16:52:37;;;;;;;;;0.00;0.00;;;;;17.56;43.33;100036.47;4976417;28;45546;-73
2021/05/21 16:55:02;;;;;;;;;1.00;1.00;;;;;17.35;43.97;100027.03;4977820;28;47873;-76
2021/05/21 16:57:28;;;;;;;;;1.00;1.00;;;;;17.26;45.33;100014.19;4992567;28;45424;-74
2021/05/21 16:59:53;;;;;;;;;1.00;0.67;;;;;17.23;45.11;100003.66;4981925;28;45516;-76
2021/05/21 17:02:18;;;;;;;;;0.00;0.00;;;;;17.14;45.41;100004.19;4995784;28;45654;-74
2021/05/21 17:04:44;;;;;;;;;0.00;0.00;;;;;17.15;45.28;100001.44;4994223;28;55134;-75
2021/05/21 17:07:12;;;;;;;;;0.00;0.00;;;;;17.18;45.59;100003.94;4974606;28;45551;-75
2021/05/21 17:09:38;;;;;;;;;1.00;1.00;;;;;17.18;45.35;100000.38;4992493;28;45510;-74
2021/05/21 17:12:04;;;;;;;;;1.00;1.00;;;;;17.13;45.24;99997.97;4973893;28;45652;-75
2021/05/21 17:14:36;;;;;;;;;3.00;2.00;;;;;17.45;45.28;99990.66;4985165;28;47444;-73
2021/05/21 17:46:59;;;;;;;;;1.00;1.00;;;;;18.31;42.40;99971.84;4992803;28;46137;-73
2021/05/21 17:54:38;;;;;;;;;0.33;0.33;;;;;17.85;42.13;99972.09;4994097;28;45550;-71
2021/05/21 18:08:15;;;;;;;;;0.00;0.00;;;;;17.58;42.67;99977.34;4966746;28;46301;-69
2021/05/21 18:11:35;;;;;;;;;2.00;1.00;;;;;17.62;42.14;99955.59;4973291;28;45729;-73
2021/05/21 18:18:35;;;;;;;;;0.00;0.00;;;;;17.47;41.31;99955.69;5006413;28;46386;-71
2021/05/21 19:03:31;;;;;;;;;0.00;0.00;;;;;16.88;42.57;99931.56;4995822;28;49615;-72
2021/05/21 19:05:57;;;;;;;;;1.33;1.00;;;;;16.86;42.51;99925.44;4976531;28;45696;-72
2021/05/21 19:16:20;;;;;;;;;1.00;1.00;;;;;16.74;43.41;99947.59;4989115;28;45539;-70
2021/05/21 19:18:47;;;;;;;;;0.00;0.00;;;;;16.72;43.62;99942.34;4975008;28;45548;-70
2021/05/21 19:23:43;;;;;;;;;1.00;1.00;;;;;16.66;44.00;99961.44;5008394;28;45497;-72
2021/05/21 19:26:09;;;;;;;;;1.00;1.00;;;;;16.62;43.89;99949.16;4975690;28;45431;-70
2021/05/21 19:44:13;;;;;;;;;1.00;1.00;;;;;16.33;44.97;99955.34;4996033;28;45562;-74
2021/05/21 19:49:58;;;;;;;;;0.00;0.00;;;;;16.30;45.49;99958.22;4992465;28;45701;-69
2021/05/21 19:53:46;;;;;;;;;0.00;0.00;;;;;16.23;45.31;99941.63;4996926;28;47061;-71
2021/05/21 20:13:44;;;;;;;;;0.00;0.00;;;;;16.03;45.71;99977.56;4990840;28;46040;-69
2021/05/21 20:16:09;;;;;;;;;1.00;1.00;;;;;15.99;45.72;99967.97;4993896;28;45658;-71
2021/05/21 20:18:35;;;;;;;;;1.00;1.00;;;;;15.96;45.48;99981.53;4965138;28;46120;-70
2021/05/21 20:21:00;;;;;;;;;0.00;0.00;;;;;15.88;45.74;99971.25;4987171;28;46104;-70
2021/05/21 20:23:26;;;;;;;;;0.33;0.33;;;;;15.88;45.69;99970.41;4977262;28;48831;-70
2021/05/21 20:26:02;;;;;;;;;0.00;0.00;;;;;15.89;45.62;99970.31;4987909;28;46758;-70
2021/05/21 20:28:33;;;;;;;;;0.00;0.00;;;;;15.85;45.40;99974.09;4997297;28;45466;-70
2021/05/21 20:41:40;;;;;;;;;0.00;0.00;;;;;15.72;45.45;99993.56;4993550;28;45367;-71
2021/05/21 21:00:39;;;;;;;;;1.00;0.00;;;;;15.28;46.47;100012.81;4992030;28;45619;-71
2021/05/21 21:03:19;;;;;;;;;1.00;0.00;;;;;15.22;46.41;99994.41;4986849;28;45631;-69
2021/05/21 21:08:51;;;;;;;;;0.33;0.33;;;;;15.12;46.96;100009.19;5003349;28;45516;-71
2021/05/21 21:19:13;;;;;;;;;0.00;0.00;;;;;14.89;47.26;100016.59;5005617;28;45442;-69
2021/05/21 22:02:23;;;;;;;;;0.00;0.00;;;;;14.70;49.26;100027.31;4996991;28;45418;-75
2021/05/21 22:21:00;;;;;;;;;0.00;0.00;;;;;14.51;49.91;100039.88;5009069;28;46274;-75
2021/05/21 22:25:57;;;;;;;;;0.00;0.00;;;;;14.47;50.16;100040.06;4993872;28;46103;-74
2021/05/21 22:28:22;;;;;;;;;0.00;0.00;;;;;14.45;50.18;100058.84;4992492;28;45605;-76
2021/05/21 22:30:48;;;;;;;;;0.00;0.00;;;;;14.37;50.17;100035.16;4989135;28;48841;-74
2021/05/21 22:33:13;;;;;;;;;0.00;0.00;;;;;14.38;50.45;100050.25;4974999;28;45590;-76
2021/05/21 22:35:39;;;;;;;;;0.00;0.00;;;;;14.32;50.45;100041.66;4974793;28;45468;-76
2021/05/21 22:38:04;;;;;;;;;0.67;0.67;;;;;14.31;50.25;100045.25;4994919;28;45450;-76
2021/05/21 22:40:30;;;;;;;;;0.67;0.67;;;;;14.28;50.79;100038.25;4996923;28;46330;-78
2021/05/21 22:42:57;;;;;;;;;0.00;0.00;;;;;14.31;50.73;100034.56;4976644;28;45831;-76
2021/05/21 22:45:22;;;;;;;;;0.00;0.00;;;;;14.28;50.68;100037.41;5012754;28;45612;-77
2021/05/21 22:47:48;;;;;;;;;0.00;0.00;;;;;14.28;50.65;100037.41;4981474;28;46063;-75
2021/05/21 22:50:14;;;;;;;;;1.00;1.00;;;;;14.28;50.66;100037.41;4980513;28;47596;-76
2021/05/21 22:52:40;;;;;;;;;0.00;0.00;;;;;14.27;50.69;100049.88;4997007;28;45514;-73
2021/05/21 22:55:05;;;;;;;;;1.00;1.00;;;;;14.25;51.06;100043.75;5010004;28;45547;-76
2021/05/21 22:57:31;;;;;;;;;0.00;0.00;;;;;14.26;50.63;100042.81;4996191;28;45319;-76
2021/05/21 22:59:57;;;;;;;;;1.00;1.00;;;;;14.24;51.17;100034.03;4979176;28;48357;-76
2021/05/21 23:02:23;;;;;;;;;1.00;1.00;;;;;14.25;51.43;100038.41;4976900;28;45678;-77
2021/05/21 23:04:48;;;;;;;;;0.00;0.00;;;;;14.24;51.05;100022.47;4979361;28;45592;-75
2021/05/21 23:07:14;;;;;;;;;1.00;0.00;;;;;14.23;50.97;100034.97;4994424;28;49815;-76
2021/05/21 23:09:39;;;;;;;;;0.00;0.00;;;;;14.23;51.00;100026.06;4997163;28;45947;-76
2021/05/21 23:12:05;;;;;;;;;0.00;0.00;;;;;14.23;51.34;100026.06;4994093;28;45584;-77
2021/05/21 23:14:30;;;;;;;;;0.00;0.00;;;;;14.16;51.19;100038.84;4994880;28;45409;-74
2021/05/21 23:16:56;;;;;;;;;1.67;1.00;;;;;14.12;51.29;100023.94;4976861;28;45650;-74
2021/05/21 23:19:22;;;;;;;;;1.00;1.00;;;;;14.11;51.64;100023.06;4976848;28;46873;-75
2021/05/21 23:21:47;;;;;;;;;2.67;1.00;;;;;14.07;51.44;100021.47;4981375;28;45926;-75
2021/05/21 23:24:13;;;;;;;;;0.00;0.00;;;;;14.10;51.43;100015.09;4996359;28;45614;-74
2021/05/21 23:26:38;;;;;;;;;0.00;0.00;;;;;14.10;51.42;100041.78;5013743;28;45514;-76
2021/05/21 23:29:04;;;;;;;;;0.00;0.00;;;;;14.05;51.66;100033.16;5009762;28;47719;-74
2021/05/21 23:31:30;;;;;;;;;0.00;0.00;;;;;14.00;51.39;100036.03;5009691;28;45769;-76
2021/05/21 23:33:57;;;;;;;;;1.00;1.00;;;;;14.00;51.97;100035.19;5014306;28;45551;-75
2021/05/21 23:36:23;;;;;;;;;0.00;0.00;;;;;13.96;52.28;100029.09;5011365;28;45720;-73
2021/05/21 23:38:48;;;;;;;;;0.00;0.00;;;;;13.89;52.20;100025.00;5010889;28;45631;-75
2021/05/21 23:41:14;;;;;;;;;1.67;1.67;;;;;13.88;52.20;100035.75;5011781;28;45490;-77
2021/05/21 23:43:40;;;;;;;;;0.00;0.00;;;;;13.87;52.09;100021.53;5009633;28;45498;-76
2021/05/21 23:46:05;;;;;;;;;1.00;1.00;;;;;13.87;52.24;100026.00;5012596;28;45658;-76
2021/05/21 23:48:30;;;;;;;;;0.00;0.00;;;;;13.87;52.48;100029.53;5012398;28;45752;-75
2021/05/21 23:50:56;;;;;;;;;1.67;1.67;;;;;13.88;52.36;100036.59;5009117;28;45570;-76
2021/05/21 23:53:21;;;;;;;;;1.00;1.00;;;;;13.90;52.09;100028.53;5012675;28;45735;-76
2021/05/21 23:55:47;;;;;;;;;0.00;0.00;;;;;13.90;51.91;100037.41;5007354;28;45723;-76
2021/05/21 23:58:16;;;;;;;;;1.00;1.00;;;;;13.88;52.20;100025.94;5011754;28;46995;-76
